Time;durP1;ratioP1;P1;durP2;ratioP2;P2;SDS_P1;SDS_P2;PMS_P1;PMS_P2;Temp;Humidity;BMP_temperature;BMP_pressure;BME280_temperature;BME280_humidity;BME280_pressure;Samples;Min_cycle;Max_cycle;Signal;HPM_P1;HPM_P2
2022/12/10 00:01:47;;;;;;;38.63;32.77;;;15.50;50.50;16.40;99930.00;;;;5068623;28;20201;-43
2022/12/10 00:04:13;;;;;;;39.73;32.33;;;15.50;50.10;16.40;99931.00;;;;5082394;28;20166;-42
2022/12/10 00:06:39;;;;;;;35.67;30.73;;;15.40;50.10;16.40;99938.00;;;;5081599;28;20244;-44
2022/12/10 00:09:08;;;;;;;35.83;30.67;;;15.40;50.10;16.30;99935.00;;;;5069432;28;20196;-44
2022/12/10 00:11:34;;;;;;;37.47;30.60;;;15.40;50.40;16.30;99929.00;;;;5051441;28;20174;-43
2022/12/10 00:14:00;;;;;;;34.53;28.83;;;15.30;50.40;16.30;99934.00;;;;5069489;28;20283;-43
2022/12/10 00:16:26;;;;;;;32.50;28.03;;;15.30;50.60;16.30;99939.00;;;;5069458;28;20230;-43
2022/12/10 00:18:52;;;;;;;33.03;28.23;;;15.30;50.60;16.30;99938.00;;;;5051477;28;20194;-42
2022/12/10 00:21:24;;;;;;;30.93;26.30;;;15.30;50.70;16.30;99934.00;;;;5071761;28;20197;-44
2022/12/10 00:23:50;;;;;;;31.37;25.73;;;15.20;50.60;16.20;99926.00;;;;5073110;28;20245;-43
2022/12/10 00:26:17;;;;;;;29.33;25.87;;;15.20;50.60;16.20;99939.00;;;;5070075;28;20257;-43
2022/12/10 00:28:43;;;;;;;28.13;24.83;;;15.20;50.60;16.20;99932.00;;;;5073609;28;20721;-43
2022/12/10 00:31:21;;;;;;;27.37;23.83;;;15.10;50.70;16.20;99929.00;;;;5069751;28;20170;-43
2022/12/10 00:33:47;;;;;;;26.30;23.53;;;15.10;50.70;16.10;99942.00;;;;5050926;28;20248;-43
2022/12/10 00:36:25;;;;;;;24.80;22.10;;;15.10;50.90;16.10;99935.00;;;;5069005;28;20257;-42
2022/12/10 00:38:51;;;;;;;26.60;23.70;;;15.10;50.90;16.10;99930.00;;;;5068582;28;20185;-44
2022/12/10 00:41:17;;;;;;;25.60;21.93;;;15.00;50.90;16.10;99930.00;;;;5067823;28;20220;-43
2022/12/10 00:43:43;;;;;;;24.43;21.93;;;15.00;50.90;16.10;99934.00;;;;5068417;28;20161;-43
2022/12/10 00:46:08;;;;;;;22.93;20.53;;;15.00;51.00;16.00;99930.00;;;;5068558;28;20204;-44
2022/12/10 00:48:34;;;;;;;22.37;19.97;;;14.90;51.00;16.00;99936.00;;;;5068333;28;20193;-44
2022/12/10 00:51:03;;;;;;;22.33;19.93;;;14.90;51.10;16.00;99939.00;;;;5068689;28;20264;-44
2022/12/10 00:53:29;;;;;;;21.90;19.60;;;14.90;51.00;16.00;99935.00;;;;5068777;28;20170;-43
2022/12/10 00:55:56;;;;;;;21.90;19.57;;;14.90;51.10;15.90;99933.00;;;;5068133;28;20166;-43
2022/12/10 00:58:22;;;;;;;20.37;18.20;;;14.90;51.10;15.90;99939.00;;;;5068206;28;20199;-43
2022/12/10 01:00:48;;;;;;;20.97;18.77;;;14.80;51.20;15.90;99930.00;;;;5050434;28;20165;-43
2022/12/10 01:03:13;;;;;;;20.80;18.60;;;14.80;51.00;15.90;99936.00;;;;5068272;28;20523;-44
2022/12/10 01:05:39;;;;;;;20.10;17.93;;;14.80;51.10;15.80;99936.00;;;;5070192;28;20646;-43
2022/12/10 01:08:05;;;;;;;19.87;17.77;;;14.70;51.10;15.80;99935.00;;;;5069187;28;20336;-42
2022/12/10 01:10:31;;;;;;;18.77;16.60;;;14.70;51.10;15.80;99934.00;;;;5068994;28;20201;-43
2022/12/10 01:12:56;;;;;;;18.60;16.70;;;14.70;51.20;15.80;99940.00;;;;5070527;28;20185;-43
2022/12/10 01:15:22;;;;;;;19.30;17.30;;;14.70;51.30;15.70;99943.00;;;;5072626;28;20315;-43
2022/12/10 01:17:48;;;;;;;17.53;15.73;;;14.70;51.30;15.70;99943.00;;;;5072280;28;20216;-43
2022/12/10 01:20:14;;;;;;;18.27;16.37;;;14.70;51.30;15.70;99947.00;;;;5072374;28;20642;-42
2022/12/10 01:22:39;;;;;;;17.73;15.83;;;14.60;51.20;15.70;99948.00;;;;5054260;28;20205;-43
2022/12/10 01:25:05;;;;;;;17.27;15.57;;;14.60;51.20;15.70;99957.00;;;;5072183;28;20170;-45
2022/12/10 01:27:31;;;;;;;17.23;15.53;;;14.50;51.30;15.70;99953.00;;;;5072069;28;20181;-45
2022/12/10 01:29:57;;;;;;;16.93;15.13;;;14.50;51.20;15.60;99967.00;;;;5071872;28;20185;-43
2022/12/10 01:32:22;;;;;;;16.53;14.83;;;14.50;51.30;15.60;99963.00;;;;5071910;28;20177;-43
2022/12/10 01:34:48;;;;;;;16.13;14.53;;;14.50;51.30;15.60;99962.00;;;;5071773;28;20207;-43
2022/12/10 01:37:14;;;;;;;16.17;14.57;;;14.50;51.40;15.60;99966.00;;;;5071724;28;20170;-43
2022/12/10 01:39:40;;;;;;;16.73;14.93;;;14.50;51.40;15.60;99965.00;;;;5071837;28;20201;-44
2022/12/10 01:42:05;;;;;;;14.43;12.97;;;14.50;51.40;15.50;99963.00;;;;5071073;28;20749;-44
2022/12/10 01:44:31;;;;;;;15.17;13.67;;;14.50;51.50;15.50;99964.00;;;;5071577;28;20688;-43
2022/12/10 01:46:59;;;;;;;15.40;13.90;;;14.40;51.40;15.50;99977.00;;;;5071683;28;20208;-44
2022/12/10 01:49:37;;;;;;;14.03;12.63;;;14.40;51.40;15.50;99980.00;;;;5053645;28;20217;-43
2022/12/10 01:52:05;;;;;;;14.47;13.07;;;14.40;51.40;15.50;99975.00;;;;5054995;28;20248;-43
2022/12/10 01:54:34;;;;;;;14.10;12.70;;;14.30;51.40;15.50;99982.00;;;;5071247;28;20206;-43
2022/12/10 01:57:08;;;;;;;13.63;12.30;;;14.30;51.30;15.40;99973.00;;;;5071168;28;20182;-44
2022/12/10 01:59:35;;;;;;;14.40;13.00;;;14.30;51.40;15.40;99976.00;;;;5071401;28;20200;-43
2022/12/10 02:02:06;;;;;;;14.07;12.67;;;14.30;51.30;15.40;99973.00;;;;5037007;28;20201;-43
2022/12/10 02:05:19;;;;;;;13.77;12.37;;;14.30;51.40;15.40;99974.00;;;;5054908;28;20676;-43
2022/12/10 02:08:14;;;;;;;13.70;12.40;;;14.30;51.40;15.30;99987.00;;;;5061895;28;20173;-43
2022/12/10 02:11:16;;;;;;;12.80;11.50;;;14.20;51.40;15.30;99978.00;;;;5053869;28;20169;-43
2022/12/10 02:14:19;;;;;;;13.47;12.17;;;14.20;51.30;15.20;99990.00;;;;5054230;28;20161;-42
2022/12/10 02:16:53;;;;;;;13.70;12.30;;;14.20;51.40;15.20;99981.00;;;;5038660;28;20213;-43
2022/12/10 02:20:03;;;;;;;13.13;11.83;;;14.10;51.40;15.20;99975.00;;;;5037263;28;20243;-43
2022/12/10 02:22:33;;;;;;;12.70;11.50;;;14.10;51.40;15.20;99993.00;;;;5042398;28;20196;-43
2022/12/10 02:24:59;;;;;;;13.53;12.13;;;14.10;51.40;15.20;99996.00;;;;5052740;28;20177;-42
2022/12/10 02:27:59;;;;;;;13.23;11.93;;;14.10;51.50;15.20;99989.00;;;;5052667;28;20173;-43
2022/12/10 02:30:26;;;;;;;12.20;11.00;;;14.00;51.40;15.10;99984.00;;;;5037034;28;20190;-43
2022/12/10 02:32:51;;;;;;;12.53;11.33;;;14.00;51.50;15.10;99985.00;;;;5036187;28;20192;-42
2022/12/10 02:35:24;;;;;;;13.07;11.70;;;14.00;51.40;15.10;99986.00;;;;5052966;28;20182;-43
2022/12/10 02:37:53;;;;;;;12.60;11.30;;;14.00;51.50;15.10;99971.00;;;;5071015;28;20573;-42
2022/12/10 02:40:32;;;;;;;12.27;11.07;;;13.90;51.50;15.00;99976.00;;;;5036346;28;20180;-43
2022/12/10 02:42:58;;;;;;;12.40;11.20;;;13.90;51.40;15.00;99989.00;;;;5035523;28;20280;-43
2022/12/10 02:45:26;;;;;;;11.83;10.70;;;13.90;51.50;15.00;99995.00;;;;5035888;28;20245;-43
2022/12/10 02:47:53;;;;;;;11.67;10.50;;;13.80;51.50;15.00;99987.00;;;;5019411;28;20954;-43
2022/12/10 02:50:19;;;;;;;11.93;10.73;;;13.90;51.60;14.90;99987.00;;;;5036156;28;20630;-43
2022/12/10 02:52:44;;;;;;;11.80;10.70;;;13.80;51.60;15.00;99988.00;;;;5036735;28;20179;-43
2022/12/10 02:55:12;;;;;;;12.57;11.37;;;13.80;51.60;14.90;99987.00;;;;5072423;28;20204;-44
2022/12/10 02:58:24;;;;;;;11.50;10.40;;;13.80;51.60;14.90;99991.00;;;;5070429;28;20200;-42
2022/12/10 03:01:00;;;;;;;12.00;10.80;;;13.80;51.60;14.90;99994.00;;;;5053250;28;20519;-43
2022/12/10 03:04:03;;;;;;;12.17;10.90;;;13.80;51.60;14.90;100001.00;;;;5036741;28;20157;-43
2022/12/10 03:06:38;;;;;;;11.37;10.27;;;13.80;51.60;14.80;99991.00;;;;5035959;28;20248;-44
2022/12/10 03:09:12;;;;;;;11.27;10.17;;;13.70;51.60;14.80;99991.00;;;;5036141;28;20229;-42
2022/12/10 03:11:38;;;;;;;11.70;10.60;;;13.70;51.60;14.80;99979.00;;;;5035826;28;20611;-42
2022/12/10 03:14:23;;;;;;;11.47;10.37;;;13.70;51.50;14.80;99997.00;;;;5035773;28;20192;-43
2022/12/10 03:16:53;;;;;;;11.77;10.63;;;13.70;51.60;14.70;100003.00;;;;5051809;28;20189;-43
2022/12/10 03:19:21;;;;;;;11.20;9.93;;;13.70;51.60;14.70;99987.00;;;;5035923;28;20245;-43
2022/12/10 03:21:47;;;;;;;10.90;9.90;;;13.60;51.50;14.70;100002.00;;;;5035373;28;20209;-43
2022/12/10 03:24:13;;;;;;;11.10;10.10;;;13.60;51.60;14.70;100002.00;;;;5035190;28;20257;-43
2022/12/10 03:26:39;;;;;;;10.73;9.73;;;13.60;51.60;14.70;100014.00;;;;5051887;28;20173;-44
2022/12/10 03:29:08;;;;;;;10.70;9.70;;;13.60;51.60;14.70;100011.00;;;;5035407;28;20202;-44
2022/12/10 03:31:34;;;;;;;11.17;10.07;;;13.60;51.60;14.60;100019.00;;;;5051640;28;20771;-43
2022/12/10 03:34:01;;;;;;;10.47;9.47;;;13.50;51.60;14.60;100008.00;;;;5035342;28;20231;-44
2022/12/10 03:36:27;;;;;;;10.80;9.80;;;13.50;51.60;14.60;100016.00;;;;5035168;28;20192;-43
2022/12/10 03:38:53;;;;;;;10.90;9.90;;;13.50;51.60;14.60;99998.00;;;;5034870;28;20198;-43
2022/12/10 03:41:19;;;;;;;10.90;9.83;;;13.50;51.40;14.60;100025.00;;;;5034186;28;20210;-44
2022/12/10 03:43:55;;;;;;;10.67;9.67;;;13.60;51.40;14.60;100018.00;;;;5051203;28;20284;-44
2022/12/10 03:46:21;;;;;;;11.77;10.57;;;13.60;51.50;14.60;100017.00;;;;5069406;28;20161;-44
2022/12/10 03:48:47;;;;;;;10.33;9.33;;;13.60;51.10;14.60;100022.00;;;;5068832;28;20201;-43
2022/12/10 03:51:13;;;;;;;10.50;9.50;;;13.60;51.20;14.60;100034.00;;;;5068900;28;20197;-42
2022/12/10 03:53:39;;;;;;;10.30;9.33;;;13.70;51.10;14.60;100029.00;;;;5068724;28;20170;-43
2022/12/10 03:56:04;;;;;;;10.80;9.80;;;13.80;50.90;14.70;100014.00;;;;5069039;28;20201;-43
2022/12/10 03:58:30;;;;;;;10.57;9.57;;;13.90;50.90;14.70;100022.00;;;;5068767;28;20193;-43
2022/12/10 04:00:56;;;;;;;10.57;9.47;;;13.90;50.80;14.70;100019.00;;;;5068820;28;20518;-43
2022/12/10 04:03:22;;;;;;;10.20;9.20;;;13.90;50.80;14.70;100019.00;;;;5068430;28;20227;-45
2022/12/10 04:05:47;;;;;;;10.20;9.20;;;13.90;50.80;14.70;100027.00;;;;5068804;28;20169;-43
2022/12/10 04:08:13;;;;;;;10.30;9.30;;;13.90;50.80;14.70;100021.00;;;;5068951;28;20189;-44
2022/12/10 04:10:39;;;;;;;10.37;9.37;;;13.90;50.90;14.70;100020.00;;;;5069005;28;20170;-45
2022/12/10 04:18:33;;;;;;;9.80;8.90;;;13.90;51.00;14.60;100028.00;;;;5068988;28;20283;-44
2022/12/10 04:29:12;;;;;;;9.60;8.70;;;13.90;51.50;14.70;100030.00;;;;5033626;28;20256;-45
2022/12/10 04:31:38;;;;;;;11.00;9.30;;;13.90;52.60;14.70;100050.00;;;;5048677;28;20181;-42
2022/12/10 04:34:03;;;;;;;10.03;8.67;;;13.90;53.70;14.70;100049.00;;;;5048717;28;20174;-43
2022/12/10 04:36:29;;;;;;;9.30;8.40;;;13.90;52.60;14.70;100037.00;;;;5048921;28;20179;-43
2022/12/10 04:38:55;;;;;;;16.07;9.60;;;13.90;52.40;14.70;100040.00;;;;5048706;28;20190;-42
2022/12/10 04:41:20;;;;;;;11.63;9.43;;;13.80;52.30;14.70;100032.00;;;;5048370;28;20202;-43
2022/12/10 04:43:46;;;;;;;10.33;9.37;;;13.90;51.70;14.70;100028.00;;;;5048982;28;20706;-42
2022/12/10 04:46:12;;;;;;;10.27;9.23;;;13.90;51.70;14.70;100037.00;;;;5048907;28;20193;-43
2022/12/10 04:48:38;;;;;;;11.27;9.60;;;13.80;51.60;14.60;100043.00;;;;5053112;28;20205;-43
2022/12/10 04:51:04;;;;;;;11.37;9.90;;;13.70;51.30;14.60;100037.00;;;;5055461;28;20177;-44
2022/12/10 04:53:29;;;;;;;11.37;10.20;;;13.70;51.30;14.60;100040.00;;;;5055071;28;20602;-43
2022/12/10 04:55:55;;;;;;;12.40;10.57;;;13.70;51.20;14.60;100040.00;;;;5037917;28;20174;-43
2022/12/10 04:58:21;;;;;;;11.90;10.80;;;13.70;51.10;14.60;100026.00;;;;5037839;28;20194;-43
2022/12/10 05:00:47;;;;;;;13.23;11.93;;;13.70;51.10;14.60;100030.00;;;;5055143;28;20177;-43
2022/12/10 05:03:12;;;;;;;12.80;11.47;;;13.70;50.80;14.50;100026.00;;;;5055507;28;20643;-42
2022/12/10 05:05:38;;;;;;;13.13;11.90;;;13.60;50.70;14.50;100050.00;;;;5055747;28;20166;-44
2022/12/10 05:08:04;;;;;;;13.13;11.83;;;13.70;50.90;14.50;100009.00;;;;5055862;28;20232;-43
2022/12/10 05:10:30;;;;;;;13.03;11.83;;;13.60;50.70;14.50;100035.00;;;;5055585;28;20166;-43
2022/12/10 05:12:56;;;;;;;13.00;11.80;;;13.60;50.60;14.50;100039.00;;;;5055421;28;20184;-43
2022/12/10 05:15:21;;;;;;;12.87;11.67;;;13.50;50.30;14.50;100025.00;;;;5055558;28;20174;-43
2022/12/10 05:17:47;;;;;;;13.83;12.53;;;13.60;50.40;14.50;100040.00;;;;5054399;28;20252;-42
2022/12/10 05:20:13;;;;;;;12.63;11.33;;;13.50;50.20;14.40;100034.00;;;;5073803;28;20185;-44
2022/12/10 05:25:23;;;;;;;13.87;12.40;;;13.50;50.20;14.40;100037.00;;;;5062180;28;20164;-43
2022/12/10 05:27:49;;;;;;;14.13;12.83;;;13.50;50.50;14.40;100034.00;;;;5076013;28;20419;-44
2022/12/10 05:30:14;;;;;;;14.07;12.57;;;13.40;50.30;14.40;100020.00;;;;5076880;28;20197;-43
2022/12/10 05:32:40;;;;;;;14.63;13.13;;;13.40;50.50;14.30;100014.00;;;;5075456;28;20709;-43
2022/12/10 05:35:06;;;;;;;16.87;13.27;;;13.30;50.30;14.30;100022.00;;;;5075701;28;20173;-43
2022/12/10 05:37:32;;;;;;;19.57;14.00;;;13.30;50.10;14.30;100029.00;;;;5075941;28;20215;-43
2022/12/10 05:39:58;;;;;;;22.27;13.70;;;13.40;50.00;14.30;100027.00;;;;5075673;28;20177;-43
2022/12/10 05:42:24;;;;;;;22.57;14.27;;;13.30;50.00;14.30;100029.00;;;;5074167;28;20585;-42
2022/12/10 05:44:49;;;;;;;25.33;14.33;;;13.30;49.90;14.30;100029.00;;;;5076128;28;20181;-42
2022/12/10 05:47:15;;;;;;;22.53;14.07;;;13.30;50.20;14.30;100041.00;;;;5069583;28;20170;-43
2022/12/10 05:49:41;;;;;;;26.50;13.53;;;13.30;50.30;14.30;100039.00;;;;5057755;28;20216;-43
2022/12/10 05:52:08;;;;;;;21.20;13.77;;;13.40;50.10;14.30;100040.00;;;;5055414;28;20554;-43
2022/12/10 05:54:34;;;;;;;23.07;13.13;;;13.40;50.20;14.30;100046.00;;;;5056045;28;20212;-43
2022/12/10 05:57:00;;;;;;;18.50;13.30;;;13.40;50.20;14.30;100042.00;;;;5055247;28;20178;-42
2022/12/10 05:59:26;;;;;;;20.63;12.90;;;13.40;50.30;14.30;100040.00;;;;5054497;28;20205;-43
2022/12/10 06:01:51;;;;;;;21.10;12.37;;;13.30;50.30;14.30;100056.00;;;;5034623;28;20671;-43
2022/12/10 06:04:17;;;;;;;21.73;12.30;;;13.30;50.40;14.30;100058.00;;;;5052055;28;20312;-43
2022/12/10 06:06:43;;;;;;;19.90;12.70;;;13.30;50.50;14.30;99996.00;;;;5051665;28;20186;-45
2022/12/10 06:09:12;;;;;;;19.77;12.57;;;13.30;50.60;14.20;100049.00;;;;5052071;28;20593;-43
2022/12/10 06:11:38;;;;;;;17.37;12.17;;;13.30;50.60;14.20;100050.00;;;;5051097;28;20196;-43
2022/12/10 06:14:03;;;;;;;17.00;12.07;;;13.30;50.50;14.20;100051.00;;;;5051117;28;20588;-43
2022/12/10 06:16:29;;;;;;;18.07;12.37;;;13.20;50.50;14.20;100039.00;;;;5050453;28;20221;-43
2022/12/10 06:18:55;;;;;;;16.97;11.30;;;13.20;50.50;14.20;100045.00;;;;5051671;28;20689;-44
2022/12/10 06:21:21;;;;;;;13.63;11.33;;;13.20;50.60;14.20;100048.00;;;;5017223;28;20198;-44
2022/12/10 06:23:48;;;;;;;16.43;11.40;;;13.20;50.70;14.20;100058.00;;;;5052605;28;20186;-44
2022/12/10 06:26:17;;;;;;;12.90;10.43;;;13.10;50.60;14.20;100053.00;;;;5033651;28;20169;-43
2022/12/10 06:28:44;;;;;;;16.13;10.70;;;13.20;50.80;14.10;100059.00;;;;5051497;28;20196;-42
2022/12/10 06:31:10;;;;;;;12.20;10.50;;;13.10;50.70;14.10;100057.00;;;;5033502;28;20174;-43
2022/12/10 06:33:36;;;;;;;14.47;10.83;;;13.10;50.70;14.10;100055.00;;;;5033303;28;20596;-43
2022/12/10 06:36:06;;;;;;;12.60;10.37;;;13.10;50.70;14.10;100061.00;;;;5051203;28;20636;-43
2022/12/10 06:38:33;;;;;;;12.97;10.27;;;13.10;50.80;14.10;100051.00;;;;5033656;28;20573;-43
2022/12/10 06:40:58;;;;;;;13.93;10.33;;;13.00;50.80;14.10;100069.00;;;;5033561;28;20738;-42
2022/12/10 06:43:24;;;;;;;11.87;9.90;;;13.00;50.80;14.10;100066.00;;;;5050509;28;20182;-43
2022/12/10 06:45:50;;;;;;;10.90;9.70;;;13.00;51.00;14.00;100062.00;;;;5051287;28;20170;-42
2022/12/10 06:48:15;;;;;;;14.70;10.73;;;13.00;50.90;14.00;100052.00;;;;5051124;28;20186;-42
2022/12/10 06:50:41;;;;;;;13.10;10.10;;;12.90;50.90;14.00;100059.00;;;;5034031;28;20189;-43
2022/12/10 06:53:07;;;;;;;12.43;9.83;;;12.90;50.90;14.00;100076.00;;;;5050873;28;20185;-43
2022/12/10 06:55:33;;;;;;;12.83;10.17;;;12.90;50.90;14.00;100083.00;;;;5050822;28;20167;-44
2022/12/10 06:57:59;;;;;;;10.83;9.43;;;12.90;51.00;13.90;100085.00;;;;5051451;28;20186;-42
2022/12/10 07:00:24;;;;;;;12.53;10.20;;;12.90;50.90;13.90;100083.00;;;;5051201;28;20170;-42
2022/12/10 07:02:50;;;;;;;10.50;9.50;;;12.90;51.00;13.90;100083.00;;;;5050808;28;20194;-42
2022/12/10 07:05:16;;;;;;;10.70;9.60;;;12.90;50.90;13.90;100093.00;;;;5032969;28;20157;-43
2022/12/10 07:07:42;;;;;;;10.90;9.77;;;12.90;51.00;13.90;100090.00;;;;5051064;28;20545;-42
2022/12/10 07:10:08;;;;;;;11.57;9.60;;;12.90;51.00;13.90;100085.00;;;;5032813;28;20178;-43
2022/12/10 07:12:34;;;;;;;10.77;9.67;;;12.90;50.90;13.90;100098.00;;;;5050650;28;20174;-43
2022/12/10 07:14:59;;;;;;;10.83;9.73;;;12.80;51.00;13.90;100092.00;;;;5050687;28;20253;-43
2022/12/10 07:17:25;;;;;;;12.17;9.73;;;12.80;51.00;13.90;100097.00;;;;5050064;28;20743;-44
2022/12/10 07:19:51;;;;;;;10.60;9.60;;;12.80;51.70;13.90;100093.00;;;;5050705;28;20190;-42
2022/12/10 07:22:17;;;;;;;11.17;9.67;;;12.80;51.10;13.80;100094.00;;;;5050536;28;20205;-43
2022/12/10 07:24:43;;;;;;;10.33;9.33;;;12.80;51.20;13.80;100101.00;;;;5050692;28;20261;-42
2022/12/10 07:27:08;;;;;;;12.77;10.17;;;12.80;51.20;13.80;100112.00;;;;5050399;28;20241;-43
2022/12/10 07:29:34;;;;;;;10.77;9.67;;;12.80;51.20;13.80;100097.00;;;;5050544;28;20548;-43
2022/12/10 07:32:00;;;;;;;10.30;9.20;;;12.70;51.10;13.80;100104.00;;;;5032410;28;20170;-42
2022/12/10 07:34:26;;;;;;;10.40;9.30;;;12.70;51.10;13.80;100097.00;;;;5050595;28;20175;-44
2022/12/10 07:36:51;;;;;;;10.73;9.67;;;12.70;51.10;13.80;100112.00;;;;5050484;28;20181;-44
2022/12/10 07:39:17;;;;;;;10.20;9.20;;;12.70;51.20;13.70;100107.00;;;;5050328;28;20232;-43
2022/12/10 07:41:47;;;;;;;10.53;9.50;;;12.70;51.20;13.70;100114.00;;;;5047866;28;20289;-43
2022/12/10 07:44:13;;;;;;;10.80;9.70;;;12.70;51.20;13.70;100122.00;;;;5032403;28;20524;-43
2022/12/10 07:46:38;;;;;;;10.33;9.23;;;12.60;51.20;13.70;100121.00;;;;5031538;28;20552;-42
2022/12/10 07:49:04;;;;;;;10.30;9.30;;;12.60;51.20;13.70;100115.00;;;;5049817;28;20277;-44
2022/12/10 07:51:30;;;;;;;10.80;9.70;;;12.60;51.20;13.70;100118.00;;;;5049539;28;20257;-43
2022/12/10 07:53:56;;;;;;;10.13;8.90;;;12.60;51.30;13.60;100130.00;;;;5050278;28;20170;-42
2022/12/10 07:56:22;;;;;;;10.30;9.40;;;12.60;51.30;13.60;100126.00;;;;5050910;28;20174;-42
2022/12/10 07:58:48;;;;;;;10.97;9.73;;;12.60;51.30;13.60;100125.00;;;;5050890;28;20240;-43
2022/12/10 08:01:23;;;;;;;10.10;9.20;;;12.60;51.40;13.60;100131.00;;;;5050327;28;20193;-42
2022/12/10 08:03:49;;;;;;;10.43;9.43;;;12.60;52.00;13.60;100128.00;;;;5050668;28;20211;-43
2022/12/10 08:06:16;;;;;;;10.47;9.23;;;12.50;51.30;13.60;100140.00;;;;5049393;28;20189;-43
2022/12/10 08:08:42;;;;;;;11.17;9.80;;;12.60;51.40;13.60;100141.00;;;;5049856;28;20281;-43
2022/12/10 08:11:08;;;;;;;10.50;9.40;;;12.50;51.40;13.60;100138.00;;;;5056718;28;20180;-43
2022/12/10 08:13:34;;;;;;;9.83;8.90;;;12.50;51.40;13.60;100141.00;;;;5069428;28;20231;-44
2022/12/10 08:16:27;;;;;;;10.00;9.00;;;12.50;51.40;13.50;100145.00;;;;5051572;28;20169;-44
2022/12/10 08:18:57;;;;;;;10.17;9.07;;;12.50;51.50;13.50;100151.00;;;;5052371;28;20285;-44
2022/12/10 08:21:25;;;;;;;10.47;9.57;;;12.50;51.50;13.50;100153.00;;;;5051524;28;20244;-43
2022/12/10 08:23:51;;;;;;;10.67;9.47;;;12.40;51.40;13.50;100157.00;;;;5034471;28;20173;-44
2022/12/10 08:26:19;;;;;;;10.63;9.13;;;12.40;51.50;13.50;100171.00;;;;5069328;28;20170;-43
2022/12/10 08:28:46;;;;;;;10.93;9.83;;;12.40;51.40;13.50;100163.00;;;;5068604;28;20193;-44
2022/12/10 08:31:12;;;;;;;11.10;10.00;;;12.40;51.40;13.50;100169.00;;;;5063923;28;20178;-44
2022/12/10 08:33:38;;;;;;;11.00;9.83;;;12.40;51.50;13.50;100179.00;;;;5061613;28;20196;-44
2022/12/10 08:36:05;;;;;;;10.20;9.17;;;12.40;51.60;13.50;100178.00;;;;5052126;28;20551;-43
2022/12/10 08:38:31;;;;;;;10.00;9.00;;;12.40;51.60;13.50;100177.00;;;;5069994;28;20189;-43
2022/12/10 08:40:57;;;;;;;10.37;9.27;;;12.40;51.60;13.50;100175.00;;;;5051363;28;20248;-45
2022/12/10 08:43:23;;;;;;;9.47;8.57;;;12.50;51.70;13.50;100172.00;;;;5052288;28;20197;-43
2022/12/10 08:45:49;;;;;;;9.67;8.67;;;12.50;51.90;13.50;100179.00;;;;5070246;28;20223;-42
2022/12/10 08:48:14;;;;;;;11.53;9.30;;;12.50;52.10;13.50;100172.00;;;;5069943;28;20186;-43
2022/12/10 08:50:40;;;;;;;8.40;7.60;;;12.60;52.30;13.50;100183.00;;;;5070449;28;20253;-43
2022/12/10 08:53:06;;;;;;;8.20;7.00;;;12.80;52.50;13.60;100180.00;;;;5070045;28;20169;-43
2022/12/10 08:55:32;;;;;;;8.67;7.40;;;12.90;52.40;13.70;100176.00;;;;5069963;28;20169;-43
2022/12/10 08:57:58;;;;;;;7.57;6.63;;;13.00;52.20;13.70;100181.00;;;;5069937;28;20197;-43
2022/12/10 09:00:25;;;;;;;7.83;7.10;;;13.20;52.10;13.80;100191.00;;;;5052057;28;20173;-43
2022/12/10 09:02:50;;;;;;;7.33;6.20;;;13.40;52.00;13.90;100197.00;;;;5069815;28;20217;-43
2022/12/10 09:05:16;;;;;;;7.50;6.17;;;13.50;51.80;14.00;100205.00;;;;5069991;28;20237;-43
2022/12/10 09:07:42;;;;;;;6.73;6.13;;;13.70;51.60;14.10;100194.00;;;;5068867;28;20182;-43
2022/12/10 09:10:11;;;;;;;7.43;6.30;;;13.80;51.60;14.20;100199.00;;;;5069631;28;20219;-44
2022/12/10 09:12:36;;;;;;;6.83;5.93;;;14.00;51.40;14.30;100199.00;;;;5052520;28;20169;-43
2022/12/10 09:15:03;;;;;;;7.93;5.37;;;14.20;51.40;14.40;100203.00;;;;5069764;28;20183;-42
2022/12/10 09:17:29;;;;;;;9.27;5.83;;;14.40;51.40;14.50;100195.00;;;;5069664;28;20649;-43
2022/12/10 09:19:54;;;;;;;14.47;6.70;;;14.50;52.30;14.70;100187.00;;;;5069648;28;20229;-43
2022/12/10 09:22:20;;;;;;;9.50;5.93;;;14.60;52.10;14.80;100182.00;;;;5069217;28;20205;-43
2022/12/10 09:24:46;;;;;;;21.70;6.30;;;14.70;52.10;14.90;100189.00;;;;5069790;28;20193;-43
2022/12/10 09:27:11;;;;;;;11.33;5.37;;;14.80;52.50;15.00;100188.00;;;;5069624;28;20220;-41
2022/12/10 09:29:37;;;;;;;12.33;5.73;;;14.90;52.50;15.10;100200.00;;;;5068883;28;20220;-44
2022/12/10 09:32:03;;;;;;;9.80;5.50;;;15.00;52.30;15.10;100191.00;;;;5068989;28;20172;-43
2022/12/10 09:34:29;;;;;;;11.50;6.03;;;15.10;52.10;15.30;100192.00;;;;5070939;28;20595;-42
2022/12/10 09:36:55;;;;;;;8.97;5.30;;;15.20;52.00;15.40;100197.00;;;;5071744;28;20197;-43
2022/12/10 09:39:20;;;;;;;9.27;5.00;;;15.30;52.00;15.50;100199.00;;;;5072648;28;20200;-43
2022/12/10 09:41:56;;;;;;;5.77;4.80;;;15.50;52.00;15.50;100202.00;;;;5071611;28;20220;-44
2022/12/10 09:44:56;;;;;;;11.60;5.23;;;15.60;51.80;15.70;100191.00;;;;5072588;28;20157;-43
2022/12/10 09:47:30;;;;;;;8.77;4.87;;;15.70;51.70;15.70;100208.00;;;;5039158;28;20276;-43
2022/12/10 09:50:39;;;;;;;7.73;5.40;;;15.70;51.60;15.80;100200.00;;;;5023923;28;20244;-44
2022/12/10 09:53:06;;;;;;;5.60;4.77;;;15.80;51.70;15.90;100176.00;;;;5070148;28;20200;-43
2022/12/10 09:55:36;;;;;;;7.93;4.80;;;15.90;51.60;16.00;100192.00;;;;5023325;28;20189;-44
2022/12/10 09:58:04;;;;;;;7.03;5.00;;;16.00;51.50;16.10;100198.00;;;;5072564;28;20189;-43
2022/12/10 10:00:30;;;;;;;6.47;5.00;;;16.10;51.50;16.10;100115.00;;;;5072596;28;20257;-42
2022/12/10 10:03:01;;;;;;;5.77;4.83;;;16.10;51.40;16.20;100192.00;;;;5055495;28;20228;-44
2022/12/10 10:05:29;;;;;;;6.43;4.90;;;16.10;51.40;16.30;100201.00;;;;5039347;28;20154;-44
2022/12/10 10:08:04;;;;;;;6.50;4.67;;;16.20;51.50;16.30;100190.00;;;;5055374;28;20281;-44
2022/12/10 10:10:38;;;;;;;5.03;4.63;;;16.10;51.40;16.30;100202.00;;;;5023210;28;20241;-42
2022/12/10 10:13:07;;;;;;;5.77;5.17;;;16.20;51.60;16.40;100202.00;;;;5072269;28;20638;-44
2022/12/10 10:15:39;;;;;;;5.43;4.73;;;16.20;51.50;16.40;100202.00;;;;5073550;28;20252;-44
2022/12/10 10:18:17;;;;;;;5.43;4.60;;;16.30;51.50;16.50;100201.00;;;;5074519;28;20201;-43
2022/12/10 10:20:43;;;;;;;5.43;4.93;;;16.30;51.50;16.50;100200.00;;;;5039113;28;20500;-43
2022/12/10 10:23:09;;;;;;;5.93;4.93;;;16.30;51.50;16.50;100185.00;;;;5071908;28;20201;-44
2022/12/10 10:25:35;;;;;;;5.00;4.53;;;16.30;51.70;16.60;100197.00;;;;5054054;28;20165;-43
2022/12/10 10:28:01;;;;;;;5.13;4.60;;;16.30;51.70;16.60;100204.00;;;;5072742;28;20193;-45
2022/12/10 10:30:27;;;;;;;5.23;4.73;;;16.40;51.70;16.60;100210.00;;;;5072757;28;20249;-43
2022/12/10 10:32:56;;;;;;;4.87;4.40;;;16.30;51.60;16.70;100214.00;;;;5071717;28;20177;-43
2022/12/10 10:35:26;;;;;;;6.20;4.90;;;16.40;51.70;16.70;100204.00;;;;5072529;28;20178;-43
2022/12/10 10:38:06;;;;;;;6.23;4.87;;;16.30;51.70;16.70;100197.00;;;;5071753;28;20198;-42
2022/12/10 10:40:43;;;;;;;5.60;4.97;;;16.30;51.80;16.70;100213.00;;;;5023661;28;20638;-42
2022/12/10 10:43:22;;;;;;;6.00;4.83;;;16.30;52.00;16.70;100207.00;;;;5037020;28;20193;-42
2022/12/10 10:46:02;;;;;;;5.87;4.77;;;16.30;52.10;16.70;100191.00;;;;5021747;28;20252;-43
2022/12/10 10:48:28;;;;;;;5.60;4.97;;;16.30;52.10;16.70;100204.00;;;;5038404;28;20185;-44
2022/12/10 10:51:16;;;;;;;5.27;4.40;;;16.30;52.10;16.70;100211.00;;;;5053661;28;20220;-45
2022/12/10 10:53:45;;;;;;;5.30;4.80;;;16.30;52.00;16.70;100194.00;;;;5057995;28;20197;-44
2022/12/10 10:56:16;;;;;;;5.37;4.87;;;16.40;52.10;16.80;100202.00;;;;5071936;28;20169;-43
2022/12/10 10:59:05;;;;;;;5.37;4.87;;;16.40;52.00;16.80;100188.00;;;;5071958;28;20512;-44
2022/12/10 11:01:54;;;;;;;5.40;4.90;;;16.40;52.20;16.80;100200.00;;;;5036547;28;20192;-42
2022/12/10 11:04:35;;;;;;;5.00;4.53;;;16.40;52.20;16.80;100202.00;;;;5070918;28;20166;-44